sensor_id;sensor_type;location;lat;lon;timestamp;P1;durP1;ratioP1;P2;durP2;ratioP2
69246;SDS011;56358;56.328;43.992;2022-10-16T00:00:16;14.98;;;6.75;;
69246;SDS011;56358;56.328;43.992;2022-10-16T00:02:16;13.90;;;6.50;;
69246;SDS011;56358;56.328;43.992;2022-10-16T00:04:17;14.48;;;7.47;;
69246;SDS011;56358;56.328;43.992;2022-10-16T00:06:19;14.07;;;7.03;;
69246;SDS011;56358;56.328;43.992;2022-10-16T00:08:21;13.55;;;6.65;;
69246;SDS011;56358;56.328;43.992;2022-10-16T00:10:22;16.00;;;6.35;;
69246;SDS011;56358;56.328;43.992;2022-10-16T00:12:23;11.88;;;5.97;;
69246;SDS011;56358;56.328;43.992;2022-10-16T00:14:23;14.85;;;6.75;;
69246;SDS011;56358;56.328;43.992;2022-10-16T00:16:24;13.45;;;6.85;;
69246;SDS011;56358;56.328;43.992;2022-10-16T00:18:26;13.73;;;6.68;;
69246;SDS011;56358;56.328;43.992;2022-10-16T00:20:28;12.85;;;6.38;;
69246;SDS011;56358;56.328;43.992;2022-10-16T00:22:49;10.27;;;6.22;;
69246;SDS011;56358;56.328;43.992;2022-10-16T00:24:50;11.48;;;6.00;;
69246;SDS011;56358;56.328;43.992;2022-10-16T00:26:51;11.82;;;6.93;;
69246;SDS011;56358;56.328;43.992;2022-10-16T00:28:52;17.15;;;6.53;;
69246;SDS011;56358;56.328;43.992;2022-10-16T00:30:53;10.43;;;5.70;;
69246;SDS011;56358;56.328;43.992;2022-10-16T00:32:54;12.15;;;6.18;;
69246;SDS011;56358;56.328;43.992;2022-10-16T00:34:55;13.95;;;6.57;;
69246;SDS011;56358;56.328;43.992;2022-10-16T00:36:55;11.35;;;6.15;;
69246;SDS011;56358;56.328;43.992;2022-10-16T00:38:56;14.00;;;6.25;;
69246;SDS011;56358;56.328;43.992;2022-10-16T00:40:59;13.45;;;6.35;;
69246;SDS011;56358;56.328;43.992;2022-10-16T00:43:00;11.80;;;6.53;;
69246;SDS011;56358;56.328;43.992;2022-10-16T00:45:00;14.15;;;6.10;;
69246;SDS011;56358;56.328;43.992;2022-10-16T00:47:04;15.23;;;7.10;;
69246;SDS011;56358;56.328;43.992;2022-10-16T00:49:12;12.23;;;6.18;;
69246;SDS011;56358;56.328;43.992;2022-10-16T00:51:15;12.90;;;6.10;;
69246;SDS011;56358;56.328;43.992;2022-10-16T00:53:19;11.65;;;6.32;;
69246;SDS011;56358;56.328;43.992;2022-10-16T00:55:21;14.07;;;6.95;;
69246;SDS011;56358;56.328;43.992;2022-10-16T00:57:22;12.48;;;6.82;;
69246;SDS011;56358;56.328;43.992;2022-10-16T00:59:25;11.98;;;6.50;;
69246;SDS011;56358;56.328;43.992;2022-10-16T01:01:26;12.77;;;7.20;;
69246;SDS011;56358;56.328;43.992;2022-10-16T01:03:30;11.93;;;6.47;;
69246;SDS011;56358;56.328;43.992;2022-10-16T01:05:33;12.52;;;6.70;;
69246;SDS011;56358;56.328;43.992;2022-10-16T01:12:28;13.88;;;7.72;;
69246;SDS011;56358;56.328;43.992;2022-10-16T01:17:05;14.70;;;7.13;;
69246;SDS011;56358;56.328;43.992;2022-10-16T01:19:17;11.13;;;6.53;;
69246;SDS011;56358;56.328;43.992;2022-10-16T01:21:27;15.73;;;7.15;;
69246;SDS011;56358;56.328;43.992;2022-10-16T01:28:14;16.13;;;7.53;;
69246;SDS011;56358;56.328;43.992;2022-10-16T01:30:20;17.02;;;7.05;;
69246;SDS011;56358;56.328;43.992;2022-10-16T01:34:47;15.70;;;7.38;;
69246;SDS011;56358;56.328;43.992;2022-10-16T01:36:56;12.48;;;7.43;;
69246;SDS011;56358;56.328;43.992;2022-10-16T01:39:05;14.40;;;7.00;;
69246;SDS011;56358;56.328;43.992;2022-10-16T01:41:10;14.70;;;7.15;;
69246;SDS011;56358;56.328;43.992;2022-10-16T01:43:15;13.35;;;6.75;;
69246;SDS011;56358;56.328;43.992;2022-10-16T01:45:20;12.50;;;6.80;;
69246;SDS011;56358;56.328;43.992;2022-10-16T01:47:22;16.15;;;7.20;;
69246;SDS011;56358;56.328;43.992;2022-10-16T01:49:26;13.80;;;7.22;;
69246;SDS011;56358;56.328;43.992;2022-10-16T01:51:32;16.65;;;7.50;;
69246;SDS011;56358;56.328;43.992;2022-10-16T01:53:35;13.43;;;7.18;;
69246;SDS011;56358;56.328;43.992;2022-10-16T01:55:38;13.30;;;6.47;;
69246;SDS011;56358;56.328;43.992;2022-10-16T01:57:46;14.30;;;6.70;;
69246;SDS011;56358;56.328;43.992;2022-10-16T01:59:51;14.35;;;6.78;;
69246;SDS011;56358;56.328;43.992;2022-10-16T02:01:55;12.63;;;6.63;;
69246;SDS011;56358;56.328;43.992;2022-10-16T02:04:23;12.88;;;6.63;;
69246;SDS011;56358;56.328;43.992;2022-10-16T02:06:31;14.77;;;7.18;;
69246;SDS011;56358;56.328;43.992;2022-10-16T02:08:32;13.38;;;6.47;;
69246;SDS011;56358;56.328;43.992;2022-10-16T02:10:34;14.10;;;6.63;;
69246;SDS011;56358;56.328;43.992;2022-10-16T02:12:37;14.02;;;6.97;;
69246;SDS011;56358;56.328;43.992;2022-10-16T02:14:42;12.88;;;7.10;;
69246;SDS011;56358;56.328;43.992;2022-10-16T02:16:43;13.95;;;6.55;;
69246;SDS011;56358;56.328;43.992;2022-10-16T02:18:45;14.40;;;7.13;;
69246;SDS011;56358;56.328;43.992;2022-10-16T02:20:49;12.75;;;7.10;;
69246;SDS011;56358;56.328;43.992;2022-10-16T02:22:55;13.93;;;6.95;;
69246;SDS011;56358;56.328;43.992;2022-10-16T02:29:30;16.00;;;7.22;;
69246;SDS011;56358;56.328;43.992;2022-10-16T02:31:34;15.57;;;7.07;;
69246;SDS011;56358;56.328;43.992;2022-10-16T02:33:40;11.90;;;6.63;;
69246;SDS011;56358;56.328;43.992;2022-10-16T02:37:45;15.00;;;7.05;;
69246;SDS011;56358;56.328;43.992;2022-10-16T02:39:48;16.75;;;6.55;;
69246;SDS011;56358;56.328;43.992;2022-10-16T02:41:48;12.65;;;6.68;;
69246;SDS011;56358;56.328;43.992;2022-10-16T02:43:52;11.68;;;6.68;;
69246;SDS011;56358;56.328;43.992;2022-10-16T02:45:55;14.68;;;7.30;;
69246;SDS011;56358;56.328;43.992;2022-10-16T02:47:55;12.50;;;6.80;;
69246;SDS011;56358;56.328;43.992;2022-10-16T02:49:56;13.65;;;6.60;;
69246;SDS011;56358;56.328;43.992;2022-10-16T02:51:57;15.82;;;7.20;;
69246;SDS011;56358;56.328;43.992;2022-10-16T02:53:57;10.70;;;6.70;;
69246;SDS011;56358;56.328;43.992;2022-10-16T02:55:58;13.20;;;6.57;;
69246;SDS011;56358;56.328;43.992;2022-10-16T02:57:59;14.43;;;7.07;;
69246;SDS011;56358;56.328;43.992;2022-10-16T02:59:59;15.52;;;7.00;;
69246;SDS011;56358;56.328;43.992;2022-10-16T03:02:00;13.88;;;6.82;;
69246;SDS011;56358;56.328;43.992;2022-10-16T03:04:01;13.82;;;7.00;;
69246;SDS011;56358;56.328;43.992;2022-10-16T03:06:01;16.42;;;7.63;;
69246;SDS011;56358;56.328;43.992;2022-10-16T03:08:02;13.10;;;7.25;;
69246;SDS011;56358;56.328;43.992;2022-10-16T03:10:03;13.50;;;6.25;;
69246;SDS011;56358;56.328;43.992;2022-10-16T03:12:04;11.88;;;6.80;;
69246;SDS011;56358;56.328;43.992;2022-10-16T03:14:05;11.90;;;6.50;;
69246;SDS011;56358;56.328;43.992;2022-10-16T03:16:06;16.35;;;7.28;;
69246;SDS011;56358;56.328;43.992;2022-10-16T03:18:06;14.65;;;7.00;;
69246;SDS011;56358;56.328;43.992;2022-10-16T03:20:07;14.27;;;7.35;;
69246;SDS011;56358;56.328;43.992;2022-10-16T03:22:08;16.30;;;7.45;;
69246;SDS011;56358;56.328;43.992;2022-10-16T03:24:08;14.45;;;6.75;;
69246;SDS011;56358;56.328;43.992;2022-10-16T03:26:09;14.05;;;7.72;;
69246;SDS011;56358;56.328;43.992;2022-10-16T03:28:10;15.20;;;7.50;;
69246;SDS011;56358;56.328;43.992;2022-10-16T03:30:10;13.32;;;6.97;;
69246;SDS011;56358;56.328;43.992;2022-10-16T03:32:11;17.30;;;6.88;;
69246;SDS011;56358;56.328;43.992;2022-10-16T03:34:12;14.52;;;7.35;;
69246;SDS011;56358;56.328;43.992;2022-10-16T03:36:13;14.23;;;7.15;;
69246;SDS011;56358;56.328;43.992;2022-10-16T03:38:13;13.30;;;7.35;;
69246;SDS011;56358;56.328;43.992;2022-10-16T03:40:14;14.10;;;6.82;;
69246;SDS011;56358;56.328;43.992;2022-10-16T03:42:15;11.27;;;6.88;;
69246;SDS011;56358;56.328;43.992;2022-10-16T03:44:15;15.32;;;7.70;;
69246;SDS011;56358;56.328;43.992;2022-10-16T03:46:16;12.65;;;6.95;;
69246;SDS011;56358;56.328;43.992;2022-10-16T03:48:17;12.95;;;6.90;;
69246;SDS011;56358;56.328;43.992;2022-10-16T03:50:19;15.45;;;6.95;;
69246;SDS011;56358;56.328;43.992;2022-10-16T03:52:19;12.77;;;7.15;;
69246;SDS011;56358;56.328;43.992;2022-10-16T03:54:20;14.98;;;7.60;;
69246;SDS011;56358;56.328;43.992;2022-10-16T03:56:22;14.75;;;6.95;;
69246;SDS011;56358;56.328;43.992;2022-10-16T03:58:22;13.75;;;6.93;;
69246;SDS011;56358;56.328;43.992;2022-10-16T04:00:23;14.73;;;7.43;;
69246;SDS011;56358;56.328;43.992;2022-10-16T04:02:24;13.02;;;7.28;;
69246;SDS011;56358;56.328;43.992;2022-10-16T04:04:25;16.88;;;7.30;;
69246;SDS011;56358;56.328;43.992;2022-10-16T04:06:25;14.07;;;7.05;;
69246;SDS011;56358;56.328;43.992;2022-10-16T04:08:26;13.50;;;6.93;;
69246;SDS011;56358;56.328;43.992;2022-10-16T04:10:27;14.38;;;7.63;;
69246;SDS011;56358;56.328;43.992;2022-10-16T04:12:27;13.88;;;7.47;;
69246;SDS011;56358;56.328;43.992;2022-10-16T04:14:28;16.10;;;7.32;;
69246;SDS011;56358;56.328;43.992;2022-10-16T04:16:28;15.05;;;7.15;;
69246;SDS011;56358;56.328;43.992;2022-10-16T04:18:29;12.57;;;6.97;;
69246;SDS011;56358;56.328;43.992;2022-10-16T04:20:30;13.88;;;7.07;;
69246;SDS011;56358;56.328;43.992;2022-10-16T04:22:30;16.10;;;6.90;;
69246;SDS011;56358;56.328;43.992;2022-10-16T04:24:31;13.68;;;7.07;;
69246;SDS011;56358;56.328;43.992;2022-10-16T04:26:32;15.48;;;7.60;;
69246;SDS011;56358;56.328;43.992;2022-10-16T04:28:33;17.15;;;7.20;;
69246;SDS011;56358;56.328;43.992;2022-10-16T04:30:33;14.15;;;7.30;;
69246;SDS011;56358;56.328;43.992;2022-10-16T04:32:34;16.35;;;7.53;;
69246;SDS011;56358;56.328;43.992;2022-10-16T04:34:35;14.43;;;7.60;;
69246;SDS011;56358;56.328;43.992;2022-10-16T04:36:36;15.18;;;7.68;;
69246;SDS011;56358;56.328;43.992;2022-10-16T04:38:37;15.00;;;7.82;;
69246;SDS011;56358;56.328;43.992;2022-10-16T04:40:41;11.82;;;7.18;;
69246;SDS011;56358;56.328;43.992;2022-10-16T04:42:42;15.70;;;7.63;;
69246;SDS011;56358;56.328;43.992;2022-10-16T04:44:43;12.20;;;7.25;;
69246;SDS011;56358;56.328;43.992;2022-10-16T04:46:43;13.32;;;7.93;;
69246;SDS011;56358;56.328;43.992;2022-10-16T04:48:44;14.95;;;7.82;;
69246;SDS011;56358;56.328;43.992;2022-10-16T04:50:45;15.27;;;8.00;;
69246;SDS011;56358;56.328;43.992;2022-10-16T04:52:45;14.45;;;7.45;;
69246;SDS011;56358;56.328;43.992;2022-10-16T04:54:46;19.00;;;8.02;;
69246;SDS011;56358;56.328;43.992;2022-10-16T04:56:47;14.55;;;8.10;;
69246;SDS011;56358;56.328;43.992;2022-10-16T04:58:50;14.10;;;8.13;;
69246;SDS011;56358;56.328;43.992;2022-10-16T05:00:50;15.02;;;7.45;;
69246;SDS011;56358;56.328;43.992;2022-10-16T05:02:51;15.90;;;8.70;;
69246;SDS011;56358;56.328;43.992;2022-10-16T05:04:52;16.25;;;8.48;;
69246;SDS011;56358;56.328;43.992;2022-10-16T05:06:52;16.75;;;8.38;;
69246;SDS011;56358;56.328;43.992;2022-10-16T05:08:53;14.63;;;8.13;;
69246;SDS011;56358;56.328;43.992;2022-10-16T05:10:54;17.08;;;7.80;;
69246;SDS011;56358;56.328;43.992;2022-10-16T05:12:54;15.60;;;7.70;;
69246;SDS011;56358;56.328;43.992;2022-10-16T05:14:55;20.17;;;7.50;;
69246;SDS011;56358;56.328;43.992;2022-10-16T05:18:59;14.00;;;7.18;;
69246;SDS011;56358;56.328;43.992;2022-10-16T05:21:00;13.88;;;7.40;;
69246;SDS011;56358;56.328;43.992;2022-10-16T05:23:00;17.67;;;8.10;;
69246;SDS011;56358;56.328;43.992;2022-10-16T05:25:01;16.85;;;7.40;;
69246;SDS011;56358;56.328;43.992;2022-10-16T05:27:03;13.35;;;7.63;;
69246;SDS011;56358;56.328;43.992;2022-10-16T05:29:04;14.88;;;7.78;;
69246;SDS011;56358;56.328;43.992;2022-10-16T05:31:05;18.27;;;7.80;;
69246;SDS011;56358;56.328;43.992;2022-10-16T05:33:06;16.77;;;7.32;;
69246;SDS011;56358;56.328;43.992;2022-10-16T05:35:07;15.93;;;7.47;;
69246;SDS011;56358;56.328;43.992;2022-10-16T05:37:08;12.23;;;7.28;;
69246;SDS011;56358;56.328;43.992;2022-10-16T05:39:09;14.27;;;7.40;;
69246;SDS011;56358;56.328;43.992;2022-10-16T05:41:10;16.02;;;7.55;;
69246;SDS011;56358;56.328;43.992;2022-10-16T05:43:10;14.73;;;7.78;;
69246;SDS011;56358;56.328;43.992;2022-10-16T05:45:11;12.93;;;7.55;;
69246;SDS011;56358;56.328;43.992;2022-10-16T05:47:12;15.40;;;7.82;;
69246;SDS011;56358;56.328;43.992;2022-10-16T05:49:14;14.02;;;7.47;;
69246;SDS011;56358;56.328;43.992;2022-10-16T05:51:15;17.25;;;8.18;;
69246;SDS011;56358;56.328;43.992;2022-10-16T05:53:15;14.10;;;7.53;;
69246;SDS011;56358;56.328;43.992;2022-10-16T05:55:16;16.73;;;7.03;;
69246;SDS011;56358;56.328;43.992;2022-10-16T05:57:16;13.73;;;7.30;;
69246;SDS011;56358;56.328;43.992;2022-10-16T05:59:17;13.82;;;7.47;;
69246;SDS011;56358;56.328;43.992;2022-10-16T06:01:18;15.20;;;7.53;;
69246;SDS011;56358;56.328;43.992;2022-10-16T06:03:21;14.30;;;7.63;;
69246;SDS011;56358;56.328;43.992;2022-10-16T06:05:22;21.05;;;11.13;;
69246;SDS011;56358;56.328;43.992;2022-10-16T06:07:22;20.83;;;12.02;;
69246;SDS011;56358;56.328;43.992;2022-10-16T06:09:23;20.70;;;11.65;;
69246;SDS011;56358;56.328;43.992;2022-10-16T06:11:25;18.48;;;11.38;;
69246;SDS011;56358;56.328;43.992;2022-10-16T06:13:27;20.08;;;10.98;;
69246;SDS011;56358;56.328;43.992;2022-10-16T06:15:28;20.75;;;10.68;;
69246;SDS011;56358;56.328;43.992;2022-10-16T06:17:29;18.05;;;10.02;;
69246;SDS011;56358;56.328;43.992;2022-10-16T06:19:29;16.13;;;8.93;;
69246;SDS011;56358;56.328;43.992;2022-10-16T06:21:31;17.38;;;8.68;;
69246;SDS011;56358;56.328;43.992;2022-10-16T06:23:32;14.90;;;8.43;;
69246;SDS011;56358;56.328;43.992;2022-10-16T06:25:33;15.45;;;7.75;;
69246;SDS011;56358;56.328;43.992;2022-10-16T06:27:33;22.48;;;9.23;;
69246;SDS011;56358;56.328;43.992;2022-10-16T06:29:34;18.58;;;7.78;;
69246;SDS011;56358;56.328;43.992;2022-10-16T06:31:35;14.75;;;7.82;;
69246;SDS011;56358;56.328;43.992;2022-10-16T06:33:36;17.77;;;8.00;;
69246;SDS011;56358;56.328;43.992;2022-10-16T06:35:37;15.65;;;8.05;;
69246;SDS011;56358;56.328;43.992;2022-10-16T06:37:38;16.27;;;8.13;;
69246;SDS011;56358;56.328;43.992;2022-10-16T06:39:39;16.40;;;8.27;;
69246;SDS011;56358;56.328;43.992;2022-10-16T06:41:39;15.90;;;8.23;;
69246;SDS011;56358;56.328;43.992;2022-10-16T06:43:40;15.68;;;8.13;;
69246;SDS011;56358;56.328;43.992;2022-10-16T06:45:40;18.60;;;8.35;;
69246;SDS011;56358;56.328;43.992;2022-10-16T06:47:41;17.15;;;8.07;;
69246;SDS011;56358;56.328;43.992;2022-10-16T06:49:42;20.48;;;8.45;;
69246;SDS011;56358;56.328;43.992;2022-10-16T06:51:42;18.10;;;7.65;;
69246;SDS011;56358;56.328;43.992;2022-10-16T06:53:44;21.10;;;8.80;;
69246;SDS011;56358;56.328;43.992;2022-10-16T06:55:52;18.38;;;8.35;;
69246;SDS011;56358;56.328;43.992;2022-10-16T06:57:52;16.75;;;7.88;;
69246;SDS011;56358;56.328;43.992;2022-10-16T06:59:53;14.63;;;7.85;;
69246;SDS011;56358;56.328;43.992;2022-10-16T07:01:54;16.42;;;8.18;;
69246;SDS011;56358;56.328;43.992;2022-10-16T07:03:54;12.27;;;7.18;;
69246;SDS011;56358;56.328;43.992;2022-10-16T07:05:55;15.70;;;7.43;;
69246;SDS011;56358;56.328;43.992;2022-10-16T07:07:56;18.00;;;7.75;;
69246;SDS011;56358;56.328;43.992;2022-10-16T07:09:57;12.70;;;7.32;;
69246;SDS011;56358;56.328;43.992;2022-10-16T07:11:57;14.25;;;7.53;;
69246;SDS011;56358;56.328;43.992;2022-10-16T07:13:58;13.52;;;7.57;;
69246;SDS011;56358;56.328;43.992;2022-10-16T07:16:13;13.20;;;7.35;;
69246;SDS011;56358;56.328;43.992;2022-10-16T07:18:15;14.95;;;7.88;;
69246;SDS011;56358;56.328;43.992;2022-10-16T07:20:16;15.93;;;7.60;;
69246;SDS011;56358;56.328;43.992;2022-10-16T07:22:17;15.80;;;7.78;;
69246;SDS011;56358;56.328;43.992;2022-10-16T07:24:17;17.50;;;8.13;;
69246;SDS011;56358;56.328;43.992;2022-10-16T07:26:18;15.15;;;8.10;;
69246;SDS011;56358;56.328;43.992;2022-10-16T07:28:19;15.40;;;6.35;;
69246;SDS011;56358;56.328;43.992;2022-10-16T07:30:19;14.85;;;7.43;;
69246;SDS011;56358;56.328;43.992;2022-10-16T07:32:20;17.35;;;7.80;;
69246;SDS011;56358;56.328;43.992;2022-10-16T07:34:21;15.95;;;7.13;;
69246;SDS011;56358;56.328;43.992;2022-10-16T07:36:22;12.02;;;6.57;;
69246;SDS011;56358;56.328;43.992;2022-10-16T07:38:22;19.20;;;7.53;;
69246;SDS011;56358;56.328;43.992;2022-10-16T07:40:23;15.80;;;8.05;;
69246;SDS011;56358;56.328;43.992;2022-10-16T07:42:23;12.85;;;7.63;;
69246;SDS011;56358;56.328;43.992;2022-10-16T07:44:24;14.43;;;7.22;;
69246;SDS011;56358;56.328;43.992;2022-10-16T07:46:25;18.15;;;8.57;;
69246;SDS011;56358;56.328;43.992;2022-10-16T07:48:27;18.23;;;8.18;;
69246;SDS011;56358;56.328;43.992;2022-10-16T07:50:28;15.82;;;7.80;;
69246;SDS011;56358;56.328;43.992;2022-10-16T07:52:29;15.57;;;8.10;;
69246;SDS011;56358;56.328;43.992;2022-10-16T07:54:30;13.77;;;7.00;;
69246;SDS011;56358;56.328;43.992;2022-10-16T07:56:30;15.02;;;7.85;;
69246;SDS011;56358;56.328;43.992;2022-10-16T07:58:33;16.83;;;7.88;;
69246;SDS011;56358;56.328;43.992;2022-10-16T08:00:36;15.32;;;8.30;;
69246;SDS011;56358;56.328;43.992;2022-10-16T08:02:37;17.15;;;7.68;;
69246;SDS011;56358;56.328;43.992;2022-10-16T08:04:38;15.80;;;7.78;;
69246;SDS011;56358;56.328;43.992;2022-10-16T08:06:39;16.10;;;8.50;;
69246;SDS011;56358;56.328;43.992;2022-10-16T08:08:40;16.38;;;8.00;;
69246;SDS011;56358;56.328;43.992;2022-10-16T08:10:41;18.65;;;9.20;;
69246;SDS011;56358;56.328;43.992;2022-10-16T08:12:42;14.50;;;8.02;;
69246;SDS011;56358;56.328;43.992;2022-10-16T08:14:43;20.67;;;8.43;;
69246;SDS011;56358;56.328;43.992;2022-10-16T08:16:43;21.38;;;9.13;;
69246;SDS011;56358;56.328;43.992;2022-10-16T08:18:44;17.85;;;8.60;;
69246;SDS011;56358;56.328;43.992;2022-10-16T08:20:45;19.17;;;8.23;;
69246;SDS011;56358;56.328;43.992;2022-10-16T08:22:45;14.10;;;8.15;;
69246;SDS011;56358;56.328;43.992;2022-10-16T08:24:46;15.70;;;8.32;;
69246;SDS011;56358;56.328;43.992;2022-10-16T08:26:46;17.92;;;8.57;;
69246;SDS011;56358;56.328;43.992;2022-10-16T08:28:49;18.52;;;8.73;;
69246;SDS011;56358;56.328;43.992;2022-10-16T08:30:51;20.17;;;9.65;;
69246;SDS011;56358;56.328;43.992;2022-10-16T08:32:54;22.30;;;8.52;;
69246;SDS011;56358;56.328;43.992;2022-10-16T08:34:55;17.02;;;9.30;;
69246;SDS011;56358;56.328;43.992;2022-10-16T08:36:55;16.50;;;8.80;;
69246;SDS011;56358;56.328;43.992;2022-10-16T08:38:56;22.30;;;8.45;;
69246;SDS011;56358;56.328;43.992;2022-10-16T08:41:07;16.35;;;8.65;;
69246;SDS011;56358;56.328;43.992;2022-10-16T08:49:33;21.83;;;9.15;;
69246;SDS011;56358;56.328;43.992;2022-10-16T08:51:35;16.60;;;9.05;;
69246;SDS011;56358;56.328;43.992;2022-10-16T08:53:44;21.42;;;9.45;;
69246;SDS011;56358;56.328;43.992;2022-10-16T08:55:50;19.27;;;9.68;;
69246;SDS011;56358;56.328;43.992;2022-10-16T08:57:51;19.27;;;9.57;;
69246;SDS011;56358;56.328;43.992;2022-10-16T08:59:52;18.15;;;9.27;;
69246;SDS011;56358;56.328;43.992;2022-10-16T09:02:00;18.15;;;10.05;;
69246;SDS011;56358;56.328;43.992;2022-10-16T09:04:38;19.02;;;10.13;;
69246;SDS011;56358;56.328;43.992;2022-10-16T09:18:02;17.90;;;9.90;;
69246;SDS011;56358;56.328;43.992;2022-10-16T09:22:31;20.80;;;10.13;;
69246;SDS011;56358;56.328;43.992;2022-10-16T09:24:33;17.15;;;10.10;;
69246;SDS011;56358;56.328;43.992;2022-10-16T09:26:34;17.52;;;9.73;;
69246;SDS011;56358;56.328;43.992;2022-10-16T09:28:34;21.98;;;10.40;;
69246;SDS011;56358;56.328;43.992;2022-10-16T09:30:35;21.58;;;10.00;;
69246;SDS011;56358;56.328;43.992;2022-10-16T09:32:38;20.58;;;10.00;;
69246;SDS011;56358;56.328;43.992;2022-10-16T09:34:52;23.30;;;10.63;;
69246;SDS011;56358;56.328;43.992;2022-10-16T09:36:57;21.05;;;9.38;;
69246;SDS011;56358;56.328;43.992;2022-10-16T09:39:06;20.70;;;10.10;;
69246;SDS011;56358;56.328;43.992;2022-10-16T09:41:21;22.95;;;10.35;;
69246;SDS011;56358;56.328;43.992;2022-10-16T09:43:33;17.52;;;9.63;;
69246;SDS011;56358;56.328;43.992;2022-10-16T09:45:36;20.50;;;11.00;;
69246;SDS011;56358;56.328;43.992;2022-10-16T09:47:39;19.95;;;9.70;;
69246;SDS011;56358;56.328;43.992;2022-10-16T09:52:04;21.85;;;10.15;;
69246;SDS011;56358;56.328;43.992;2022-10-16T09:56:20;20.92;;;10.75;;
69246;SDS011;56358;56.328;43.992;2022-10-16T09:58:23;16.92;;;9.82;;
69246;SDS011;56358;56.328;43.992;2022-10-16T10:00:25;19.40;;;10.20;;
69246;SDS011;56358;56.328;43.992;2022-10-16T10:04:56;21.45;;;10.35;;
69246;SDS011;56358;56.328;43.992;2022-10-16T10:06:57;20.35;;;9.98;;
69246;SDS011;56358;56.328;43.992;2022-10-16T10:09:43;20.08;;;10.43;;
69246;SDS011;56358;56.328;43.992;2022-10-16T10:11:39;19.73;;;9.35;;
69246;SDS011;56358;56.328;43.992;2022-10-16T10:13:40;17.30;;;9.68;;
69246;SDS011;56358;56.328;43.992;2022-10-16T10:15:41;17.42;;;10.13;;
69246;SDS011;56358;56.328;43.992;2022-10-16T10:17:49;18.15;;;9.57;;
69246;SDS011;56358;56.328;43.992;2022-10-16T10:20:00;16.42;;;8.88;;
69246;SDS011;56358;56.328;43.992;2022-10-16T10:27:10;19.10;;;9.23;;
69246;SDS011;56358;56.328;43.992;2022-10-16T10:34:32;14.80;;;8.55;;
69246;SDS011;56358;56.328;43.992;2022-10-16T10:36:42;18.20;;;7.97;;
69246;SDS011;56358;56.328;43.992;2022-10-16T10:39:00;15.77;;;8.15;;
69246;SDS011;56358;56.328;43.992;2022-10-16T10:44:06;14.30;;;7.63;;
69246;SDS011;56358;56.328;43.992;2022-10-16T10:46:20;13.95;;;8.00;;
69246;SDS011;56358;56.328;43.992;2022-10-16T10:51:01;15.80;;;8.88;;
69246;SDS011;56358;56.328;43.992;2022-10-16T10:55:40;15.90;;;7.90;;
69246;SDS011;56358;56.328;43.992;2022-10-16T11:05:02;17.33;;;8.00;;
69246;SDS011;56358;56.328;43.992;2022-10-16T11:07:27;13.73;;;7.45;;
69246;SDS011;56358;56.328;43.992;2022-10-16T11:09:40;16.75;;;8.10;;
69246;SDS011;56358;56.328;43.992;2022-10-16T11:13:56;19.02;;;8.95;;
69246;SDS011;56358;56.328;43.992;2022-10-16T11:16:04;13.02;;;7.55;;
69246;SDS011;56358;56.328;43.992;2022-10-16T11:18:19;16.20;;;7.03;;
69246;SDS011;56358;56.328;43.992;2022-10-16T11:20:54;15.52;;;6.88;;
69246;SDS011;56358;56.328;43.992;2022-10-16T11:23:00;11.95;;;5.88;;
69246;SDS011;56358;56.328;43.992;2022-10-16T11:25:21;12.65;;;5.97;;
69246;SDS011;56358;56.328;43.992;2022-10-16T11:29:52;11.45;;;6.30;;
69246;SDS011;56358;56.328;43.992;2022-10-16T11:32:05;15.00;;;6.05;;
69246;SDS011;56358;56.328;43.992;2022-10-16T11:38:46;11.02;;;4.90;;
69246;SDS011;56358;56.328;43.992;2022-10-16T11:40:50;10.93;;;5.40;;
69246;SDS011;56358;56.328;43.992;2022-10-16T11:43:58;14.68;;;5.55;;
69246;SDS011;56358;56.328;43.992;2022-10-16T11:45:48;12.45;;;5.88;;
69246;SDS011;56358;56.328;43.992;2022-10-16T11:48:03;13.52;;;6.00;;
69246;SDS011;56358;56.328;43.992;2022-10-16T11:50:31;13.35;;;5.80;;
69246;SDS011;56358;56.328;43.992;2022-10-16T11:52:39;10.23;;;5.30;;
69246;SDS011;56358;56.328;43.992;2022-10-16T11:54:46;11.45;;;5.45;;
69246;SDS011;56358;56.328;43.992;2022-10-16T11:56:53;13.40;;;5.78;;
69246;SDS011;56358;56.328;43.992;2022-10-16T11:59:01;12.93;;;5.53;;
69246;SDS011;56358;56.328;43.992;2022-10-16T12:01:18;16.95;;;6.32;;
69246;SDS011;56358;56.328;43.992;2022-10-16T12:03:22;13.32;;;5.57;;
69246;SDS011;56358;56.328;43.992;2022-10-16T12:07:35;11.65;;;6.10;;
69246;SDS011;56358;56.328;43.992;2022-10-16T12:09:40;12.20;;;6.35;;
69246;SDS011;56358;56.328;43.992;2022-10-16T12:11:42;16.65;;;6.03;;
69246;SDS011;56358;56.328;43.992;2022-10-16T12:13:42;12.00;;;5.70;;
69246;SDS011;56358;56.328;43.992;2022-10-16T12:15:43;13.27;;;6.15;;
69246;SDS011;56358;56.328;43.992;2022-10-16T12:17:46;17.48;;;7.43;;
69246;SDS011;56358;56.328;43.992;2022-10-16T12:19:57;15.18;;;6.05;;
69246;SDS011;56358;56.328;43.992;2022-10-16T12:22:00;14.75;;;5.90;;
69246;SDS011;56358;56.328;43.992;2022-10-16T12:24:02;15.85;;;5.95;;
69246;SDS011;56358;56.328;43.992;2022-10-16T12:26:07;13.93;;;7.07;;
69246;SDS011;56358;56.328;43.992;2022-10-16T12:30:29;18.80;;;6.70;;
69246;SDS011;56358;56.328;43.992;2022-10-16T12:32:32;14.18;;;6.10;;
69246;SDS011;56358;56.328;43.992;2022-10-16T12:34:41;17.80;;;6.15;;
69246;SDS011;56358;56.328;43.992;2022-10-16T12:36:43;13.98;;;6.22;;
69246;SDS011;56358;56.328;43.992;2022-10-16T12:38:48;14.27;;;6.32;;
69246;SDS011;56358;56.328;43.992;2022-10-16T12:42:58;12.50;;;5.90;;
69246;SDS011;56358;56.328;43.992;2022-10-16T12:44:59;20.30;;;6.50;;
69246;SDS011;56358;56.328;43.992;2022-10-16T12:47:01;13.15;;;6.30;;
69246;SDS011;56358;56.328;43.992;2022-10-16T12:49:06;12.40;;;5.57;;
69246;SDS011;56358;56.328;43.992;2022-10-16T12:53:30;13.13;;;5.90;;
69246;SDS011;56358;56.328;43.992;2022-10-16T12:55:34;13.65;;;6.68;;
69246;SDS011;56358;56.328;43.992;2022-10-16T13:00:20;11.70;;;6.20;;
69246;SDS011;56358;56.328;43.992;2022-10-16T13:16:59;12.02;;;5.65;;
69246;SDS011;56358;56.328;43.992;2022-10-16T13:19:15;15.93;;;6.57;;
69246;SDS011;56358;56.328;43.992;2022-10-16T13:24:07;14.33;;;6.70;;
69246;SDS011;56358;56.328;43.992;2022-10-16T13:26:21;13.27;;;6.70;;
69246;SDS011;56358;56.328;43.992;2022-10-16T13:28:35;15.38;;;6.65;;
69246;SDS011;56358;56.328;43.992;2022-10-16T13:30:42;13.05;;;6.07;;
69246;SDS011;56358;56.328;43.992;2022-10-16T13:32:45;12.45;;;5.82;;
69246;SDS011;56358;56.328;43.992;2022-10-16T13:34:48;13.07;;;6.53;;
69246;SDS011;56358;56.328;43.992;2022-10-16T13:36:50;14.48;;;6.18;;
69246;SDS011;56358;56.328;43.992;2022-10-16T13:39:00;14.18;;;5.78;;
69246;SDS011;56358;56.328;43.992;2022-10-16T13:41:11;12.02;;;6.63;;
69246;SDS011;56358;56.328;43.992;2022-10-16T13:43:18;17.60;;;7.25;;
69246;SDS011;56358;56.328;43.992;2022-10-16T13:45:22;13.35;;;6.60;;
69246;SDS011;56358;56.328;43.992;2022-10-16T13:47:26;11.95;;;5.85;;
69246;SDS011;56358;56.328;43.992;2022-10-16T13:51:29;12.15;;;6.03;;
69246;SDS011;56358;56.328;43.992;2022-10-16T13:53:32;13.90;;;6.03;;
69246;SDS011;56358;56.328;43.992;2022-10-16T13:55:34;12.02;;;5.90;;
69246;SDS011;56358;56.328;43.992;2022-10-16T13:57:34;10.35;;;5.18;;